Time;durP1;ratioP1;P1;durP2;ratioP2;P2;SDS_P1;SDS_P2;PMS_P1;PMS_P2;Temp;Humidity;BMP_temperature;BMP_pressure;BME280_temperature;BME280_humidity;BME280_pressure;Samples;Min_cycle;Max_cycle;Signal;HPM_P1;HPM_P2
2023/06/21 00:01:31;;;;;;;21.50;18.10;;;;;;;22.92;76.50;100217.95;219684;1266;141565;-85
2023/06/21 00:06:34;;;;;;;24.70;18.50;;;;;;;22.91;76.74;100212.40;220208;1268;139053;-85
2023/06/21 00:11:35;;;;;;;25.80;17.30;;;;;;;22.89;76.47;100213.27;219733;1264;141377;-85
2023/06/21 00:16:35;;;;;;;22.20;18.90;;;;;;;22.86;76.39;100204.57;220054;1263;139163;-84
2023/06/21 00:21:38;;;;;;;22.40;18.30;;;;;;;22.84;76.85;100203.66;219482;1265;143487;-85
2023/06/21 00:26:39;;;;;;;23.50;20.60;;;;;;;22.79;76.64;100195.73;220209;1268;139801;-85
2023/06/21 00:31:39;;;;;;;22.90;19.60;;;;;;;22.74;77.22;100180.81;219360;1268;141764;-85
2023/06/21 00:36:42;;;;;;;22.60;18.20;;;;;;;22.69;77.26;100187.42;220299;1266;99194;-85
2023/06/21 00:41:43;;;;;;;25.20;19.80;;;;;;;22.64;76.98;100192.94;219643;1267;140693;-84
2023/06/21 00:46:43;;;;;;;27.00;20.70;;;;;;;22.60;77.40;100192.14;220500;1265;139327;-85
2023/06/21 00:51:45;;;;;;;28.20;20.80;;;;;;;22.57;77.85;100191.39;220657;1267;142258;-85
2023/06/21 00:56:46;;;;;;;28.50;21.30;;;;;;;22.54;77.88;100193.27;221196;1266;140166;-85
2023/06/21 01:01:46;;;;;;;20.60;17.30;;;;;;;22.50;77.89;100188.80;220603;1268;141221;-85
2023/06/21 01:07:05;;;;;;;24.70;19.90;;;;;;;22.46;78.31;100191.04;221132;1265;97117;-85
2023/06/21 01:12:36;;;;;;;25.20;21.10;;;;;;;22.41;78.78;100184.58;220529;1268;141356;-83
2023/06/21 01:17:40;;;;;;;27.50;20.60;;;;;;;22.37;79.17;100172.08;221005;1265;140295;-84
2023/06/21 01:23:25;;;;;;;24.60;19.40;;;;;;;22.31;79.24;100175.61;220692;1265;141096;-84
2023/06/21 01:29:04;;;;;;;24.20;18.70;;;;;;;22.26;79.94;100183.12;220704;1264;139453;-84
2023/06/21 01:34:05;;;;;;;27.50;19.70;;;;;;;22.17;80.09;100184.74;221468;1268;365876;-83
2023/06/21 01:39:09;;;;;;;20.00;17.20;;;;;;;22.12;80.67;100190.48;220607;1267;141863;-83
2023/06/21 01:44:10;;;;;;;21.40;17.70;;;;;;;22.07;80.64;100208.61;221098;1268;139242;-84
2023/06/21 01:49:12;;;;;;;20.00;16.90;;;;;;;22.01;80.79;100221.27;220881;1269;141918;-84
2023/06/21 01:54:15;;;;;;;24.50;19.90;;;;;;;21.99;80.90;100223.36;221229;1268;139289;-84
2023/06/21 01:59:18;;;;;;;25.00;19.40;;;;;;;21.96;81.19;100208.98;220750;1266;141543;-85
2023/06/21 02:04:20;;;;;;;22.60;18.20;;;;;;;21.96;81.03;100198.16;221458;1264;139342;-84
2023/06/21 02:09:21;;;;;;;21.60;16.30;;;;;;;21.99;80.59;100199.32;221406;1267;141639;-85
2023/06/21 02:14:22;;;;;;;19.60;16.00;;;;;;;22.02;80.28;100191.14;221187;1267;139305;-85
2023/06/21 02:19:24;;;;;;;23.10;17.80;;;;;;;22.04;80.34;100185.73;220971;1268;142327;-85
2023/06/21 02:24:25;;;;;;;22.80;17.20;;;;;;;22.03;80.19;100181.63;221224;1266;139433;-85
2023/06/21 02:29:25;;;;;;;22.50;16.50;;;;;;;22.01;80.12;100184.11;220643;1267;142651;-84
2023/06/21 02:34:26;;;;;;;22.20;17.70;;;;;;;21.98;80.28;100180.48;220982;1264;139354;-85
2023/06/21 02:39:26;;;;;;;20.60;16.10;;;;;;;21.95;80.50;100187.97;220685;1264;141070;-85
2023/06/21 02:44:26;;;;;;;22.80;15.90;;;;;;;21.91;80.49;100179.02;220936;1267;139361;-85
2023/06/21 02:49:27;;;;;;;20.70;14.60;;;;;;;21.87;80.64;100161.77;220860;1263;143051;-84
2023/06/21 02:54:27;;;;;;;18.00;14.70;;;;;;;21.85;80.36;100167.46;221031;1264;139199;-83
2023/06/21 02:59:28;;;;;;;19.50;15.40;;;;;;;21.84;80.44;100161.89;220607;1264;141222;-83
2023/06/21 03:04:29;;;;;;;17.90;14.20;;;;;;;21.85;80.35;100165.70;220945;1264;139369;-83
2023/06/21 03:09:29;;;;;;;18.20;13.00;;;;;;;21.85;80.56;100177.40;220324;1268;141217;-82
2023/06/21 03:14:29;;;;;;;17.60;13.50;;;;;;;21.86;80.79;100186.30;221156;1264;139348;-83
2023/06/21 03:19:30;;;;;;;17.80;12.60;;;;;;;21.90;81.09;100198.48;220711;1267;142188;-82
2023/06/21 03:24:32;;;;;;;20.00;13.80;;;;;;;21.96;81.27;100213.79;220920;1267;139734;-84
2023/06/21 03:29:33;;;;;;;17.50;13.50;;;;;;;22.02;81.40;100222.35;220309;1268;141328;-84
2023/06/21 03:34:33;;;;;;;18.70;13.70;;;;;;;22.09;81.55;100230.73;221005;1267;139114;-83
2023/06/21 03:39:34;;;;;;;19.90;14.60;;;;;;;22.14;81.58;100223.58;220502;1264;143272;-83
2023/06/21 03:44:34;;;;;;;17.00;12.60;;;;;;;22.21;81.52;100227.68;221121;1264;139790;-84
2023/06/21 03:49:36;;;;;;;17.40;13.70;;;;;;;22.29;81.78;100229.55;220575;1264;143666;-84
2023/06/21 03:54:36;;;;;;;17.80;13.90;;;;;;;22.33;81.80;100232.25;221171;1267;138950;-84
2023/06/21 03:59:36;;;;;;;16.70;13.70;;;;;;;22.36;81.78;100234.05;220533;1264;141199;-84
2023/06/21 04:04:38;;;;;;;18.00;13.10;;;;;;;22.39;81.77;100237.85;221042;1264;143378;-83
2023/06/21 04:09:39;;;;;;;17.50;13.30;;;;;;;22.41;82.02;100233.45;220603;1264;140838;-83
2023/06/21 04:14:39;;;;;;;17.90;12.80;;;;;;;22.43;82.02;100239.22;221163;1264;139151;-84
2023/06/21 04:19:40;;;;;;;18.50;13.40;;;;;;;22.47;81.85;100238.48;220304;1267;142359;-84
2023/06/21 04:24:40;;;;;;;21.30;14.00;;;;;;;22.50;81.94;100237.83;221070;1264;98083;-84
2023/06/21 04:29:41;;;;;;;16.50;12.40;;;;;;;22.54;82.16;100244.64;220518;1264;142139;-85
2023/06/21 04:34:44;;;;;;;17.10;12.90;;;;;;;22.60;82.08;100235.13;220981;1264;139187;-83
2023/06/21 04:39:44;;;;;;;20.60;13.50;;;;;;;22.67;82.08;100225.95;220314;1264;141920;-83
2023/06/21 04:44:48;;;;;;;16.50;12.50;;;;;;;22.71;82.09;100219.72;220810;1264;139362;-82
2023/06/21 04:49:53;;;;;;;17.40;12.50;;;;;;;22.77;81.90;100201.52;220325;1264;142021;-85
2023/06/21 04:54:58;;;;;;;14.90;12.10;;;;;;;22.84;81.74;100188.98;221060;1264;107280;-84
2023/06/21 05:00:00;;;;;;;18.80;11.90;;;;;;;22.99;81.66;100178.76;220183;1265;142416;-83
2023/06/21 05:05:00;;;;;;;15.30;11.90;;;;;;;23.18;80.94;100181.31;220890;1267;139399;-84
2023/06/21 05:10:01;;;;;;;15.00;10.90;;;;;;;23.34;79.78;100202.09;220243;1264;141105;-86
2023/06/21 05:15:02;;;;;;;15.50;10.20;;;;;;;23.45;78.45;100227.68;221111;1264;139206;-83
2023/06/21 05:20:04;;;;;;;13.30;9.70;;;;;;;23.56;77.68;100260.91;220459;1264;141528;-83
2023/06/21 05:25:04;;;;;;;20.30;11.80;;;;;;;23.63;80.33;100267.00;221238;1264;97937;-85
2023/06/21 05:30:06;;;;;;;16.70;11.10;;;;;;;23.47;83.84;100263.54;220599;1264;141472;-84
2023/06/21 05:35:06;;;;;;;16.90;10.60;;;;;;;23.31;85.14;100269.81;220968;1263;140850;-86
2023/06/21 05:40:08;;;;;;;16.40;10.70;;;;;;;23.13;85.92;100277.79;220709;1264;141235;-83
2023/06/21 05:45:09;;;;;;;14.80;11.60;;;;;;;22.89;86.37;100269.90;221248;1267;139418;-83
2023/06/21 05:50:10;;;;;;;15.30;10.90;;;;;;;22.71;87.93;100261.25;220648;1264;141481;-85
2023/06/21 05:55:10;;;;;;;16.40;11.70;;;;;;;22.57;88.12;100264.16;221423;1264;96644;-85
2023/06/21 06:00:11;;;;;;;16.20;11.70;;;;;;;22.44;89.34;100271.91;220799;1264;141313;-84
2023/06/21 06:05:12;;;;;;;19.60;12.40;;;;;;;22.30;90.40;100265.45;221576;1267;139125;-84
2023/06/21 06:10:12;;;;;;;14.90;11.90;;;;;;;22.21;91.31;100259.25;220673;1267;141509;-84
2023/06/21 06:15:13;;;;;;;17.50;11.10;;;;;;;22.15;92.27;100263.67;221174;1264;139133;-83
2023/06/21 06:20:13;;;;;;;15.90;11.70;;;;;;;22.17;92.97;100279.59;220802;1265;143226;-84
2023/06/21 06:25:14;;;;;;;16.20;10.70;;;;;;;22.29;94.00;100280.40;221560;1264;98066;-86
2023/06/21 06:30:14;;;;;;;17.20;10.10;;;;;;;22.61;94.78;100287.80;221027;1264;141550;-84
2023/06/21 06:35:14;;;;;;;19.60;11.60;;;;;;;23.08;94.06;100287.29;221078;1267;157364;-84
2023/06/21 06:40:15;;;;;;;15.30;10.40;;;;;;;23.55;92.43;100277.73;220625;1264;141581;-84
2023/06/21 06:45:15;;;;;;;14.20;9.90;;;;;;;23.85;90.63;100277.01;220999;1264;139355;-84
2023/06/21 06:50:16;;;;;;;17.20;10.90;;;;;;;24.00;89.49;100283.97;220732;1264;141436;-85
2023/06/21 06:55:16;;;;;;;18.00;9.90;;;;;;;24.17;88.64;100274.65;221385;1264;98050;-84
2023/06/21 07:00:17;;;;;;;18.20;10.40;;;;;;;24.33;87.61;100277.98;220933;1264;141662;-84
2023/06/21 07:05:17;;;;;;;15.60;9.40;;;;;;;24.39;86.30;100273.30;221378;1263;139194;-83
2023/06/21 07:10:18;;;;;;;16.10;9.70;;;;;;;24.45;85.65;100272.59;220846;1264;141302;-84
2023/06/21 07:15:19;;;;;;;16.30;10.30;;;;;;;24.48;85.13;100278.48;221871;1264;139860;-85
2023/06/21 07:20:20;;;;;;;16.00;12.40;;;;;;;24.49;84.38;100286.64;220992;1264;141235;-84
2023/06/21 07:25:20;;;;;;;17.80;11.90;;;;;;;24.44;83.40;100298.20;221462;1267;98024;-84
2023/06/21 07:30:22;;;;;;;16.70;12.10;;;;;;;24.39;82.98;100297.08;220678;1264;141126;-85
2023/06/21 07:35:22;;;;;;;24.70;14.50;;;;;;;24.30;83.29;100302.65;221317;1265;139084;-84
2023/06/21 07:40:23;;;;;;;19.70;14.10;;;;;;;24.20;83.53;100311.39;221199;1263;142708;-84
2023/06/21 07:45:23;;;;;;;22.30;14.70;;;;;;;24.13;84.42;100323.98;221451;1264;139445;-83
2023/06/21 07:50:27;;;;;;;18.50;14.80;;;;;;;24.14;84.86;100337.80;220998;1264;142758;-83
2023/06/21 07:55:27;;;;;;;20.20;15.80;;;;;;;24.06;85.78;100333.29;221467;1264;97915;-82
2023/06/21 08:00:27;;;;;;;18.30;15.90;;;;;;;24.02;86.52;100338.66;221101;1264;141270;-84
2023/06/21 08:05:28;;;;;;;22.60;16.60;;;;;;;24.02;86.87;100342.85;222047;1264;140306;-84
2023/06/21 08:10:31;;;;;;;24.20;17.40;;;;;;;24.01;87.21;100349.23;221635;1265;142554;-82
2023/06/21 08:15:31;;;;;;;24.20;18.10;;;;;;;24.08;87.50;100347.23;221448;1263;139205;-83
2023/06/21 08:20:33;;;;;;;22.00;16.80;;;;;;;24.28;87.39;100349.78;220547;1264;141244;-84
2023/06/21 08:25:35;;;;;;;21.70;17.20;;;;;;;24.66;87.40;100354.33;221101;1264;96680;-83
2023/06/21 08:30:35;;;;;;;25.70;17.40;;;;;;;25.22;85.98;100349.62;220768;1264;141997;-84
2023/06/21 08:35:37;;;;;;;37.00;17.70;;;;;;;25.62;82.89;100344.67;221011;1264;230433;-83
2023/06/21 08:40:42;;;;;;;25.60;18.50;;;;;;;25.84;81.53;100344.10;220220;1264;140874;-83
2023/06/21 08:45:44;;;;;;;;;;;;;;;26.03;80.09;100343.92;221074;1264;139223;-83
2023/06/21 08:50:44;;;;;;;25.10;17.50;;;;;;;26.17;79.26;100346.70;220623;1263;127065;-83
2023/06/21 08:55:47;;;;;;;24.60;17.70;;;;;;;26.19;78.47;100348.35;220980;1264;139336;-84
2023/06/21 09:00:51;;;;;;;27.30;17.80;;;;;;;26.17;78.35;100343.53;220524;1263;142997;-81
2023/06/21 09:06:13;;;;;;;24.30;18.80;;;;;;;26.04;79.51;100343.70;221116;1264;138975;-84
2023/06/21 09:11:16;;;;;;;22.20;18.90;;;;;;;25.78;80.52;100352.17;220528;1264;141386;-83
2023/06/21 09:16:19;;;;;;;27.70;19.30;;;;;;;25.63;80.76;100364.47;221023;1264;139639;-83
2023/06/21 09:21:20;;;;;;;28.80;20.70;;;;;;;25.41;81.73;100373.33;220367;1264;141564;-84
2023/06/21 09:26:20;;;;;;;25.20;19.10;;;;;;;25.23;82.93;100381.80;220831;1264;139138;-84
2023/06/21 09:31:21;;;;;;;24.70;20.00;;;;;;;25.04;83.67;100377.79;220359;1264;141860;-83
2023/06/21 09:36:21;;;;;;;26.70;19.90;;;;;;;24.87;84.79;100378.39;220931;1264;139377;-83
2023/06/21 09:41:22;;;;;;;28.50;21.30;;;;;;;24.70;86.08;100378.89;220283;1264;141200;-83
2023/06/21 09:46:23;;;;;;;23.60;19.30;;;;;;;24.55;87.17;100381.14;221097;1264;139741;-84
2023/06/21 09:51:23;;;;;;;32.10;20.60;;;;;;;24.58;88.83;100384.68;220358;1265;142076;-84
2023/06/21 09:56:24;;;;;;;32.80;22.10;;;;;;;24.82;90.18;100379.79;221013;1264;139423;-84
2023/06/21 10:01:24;;;;;;;27.60;20.30;;;;;;;25.31;90.25;100378.47;220835;1264;142007;-83
2023/06/21 10:06:28;;;;;;;26.30;18.50;;;;;;;25.96;89.88;100373.63;221227;1264;139078;-85
2023/06/21 10:11:29;;;;;;;23.00;17.60;;;;;;;26.71;86.39;100366.95;220701;1264;142694;-85
2023/06/21 10:16:31;;;;;;;21.10;16.60;;;;;;;27.53;83.75;100367.04;221272;1264;139334;-83
2023/06/21 10:21:34;;;;;;;25.30;16.30;;;;;;;28.44;79.03;100361.33;220483;1265;141169;-84
2023/06/21 10:26:36;;;;;;;19.00;14.90;;;;;;;29.09;74.76;100369.83;221415;1264;139208;-88
2023/06/21 10:31:43;;;;;;;22.90;17.00;;;;;;;29.57;72.13;100369.25;220659;1265;141291;-83
2023/06/21 10:36:48;;;;;;;19.40;15.60;;;;;;;29.98;68.41;100356.98;220103;1267;104311;-83
2023/06/21 10:41:49;;;;;;;24.80;17.00;;;;;;;30.52;68.50;100354.27;219445;1267;141168;-83
2023/06/21 10:46:50;;;;;;;22.50;18.00;;;;;;;31.23;64.56;100356.02;220124;1264;138511;-85
2023/06/21 10:51:52;;;;;;;22.40;18.40;;;;;;;31.65;63.20;100352.53;219660;1264;140677;-84
2023/06/21 10:56:53;;;;;;;18.80;15.90;;;;;;;32.27;61.66;100350.92;220130;1264;138750;-83
2023/06/21 11:01:54;;;;;;;16.40;13.20;;;;;;;32.85;57.70;100352.58;219677;1264;140255;-86
2023/06/21 11:07:00;;;;;;;17.20;13.50;;;;;;;33.03;54.53;100350.02;220158;1265;97904;-87
2023/06/21 11:12:07;;;;;;;19.50;16.10;;;;;;;33.25;54.13;100352.05;219448;1266;140894;-84
2023/06/21 11:17:14;;;;;;;21.00;14.70;;;;;;;33.61;54.02;100354.04;220147;1264;138932;-86
2023/06/21 11:22:25;;;;;;;12.90;10.60;;;;;;;33.81;51.71;100360.09;219880;1264;141581;-84
2023/06/21 11:27:26;;;;;;;12.40;9.90;;;;;;;33.93;48.67;100364.27;220632;1264;138986;-83
2023/06/21 11:32:29;;;;;;;15.00;11.10;;;;;;;34.11;47.81;100355.63;220545;1264;140557;-87
2023/06/21 11:37:31;;;;;;;15.00;11.00;;;;;;;33.73;46.87;100350.77;222128;1264;97881;-85
2023/06/21 11:42:43;;;;;;;14.50;11.30;;;;;;;33.27;47.95;100346.84;221110;1265;140031;-84
2023/06/21 11:48:03;;;;;;;13.40;11.10;;;;;;;33.33;48.05;100343.67;221117;1264;138931;-84
2023/06/21 11:53:29;;;;;;;15.10;10.30;;;;;;;33.60;48.64;100329.85;220579;1264;141550;-84
2023/06/21 11:58:29;;;;;;;14.40;11.50;;;;;;;33.71;47.48;100324.27;221204;1267;138688;-85
2023/06/21 12:03:30;;;;;;;14.40;11.00;;;;;;;33.52;47.41;100324.73;220430;1264;141113;-88
2023/06/21 12:08:35;;;;;;;15.30;11.50;;;;;;;33.47;47.43;100326.08;222952;1263;138685;-85
2023/06/21 12:13:38;;;;;;;16.50;10.80;;;;;;;33.54;47.89;100321.00;223193;1264;139645;-85
2023/06/21 12:18:38;;;;;;;14.00;11.30;;;;;;;33.77;46.93;100320.15;222191;1264;138932;-85
2023/06/21 12:23:38;;;;;;;14.60;11.90;;;;;;;33.70;46.53;100320.13;219641;1265;139837;-83
2023/06/21 12:28:40;;;;;;;16.40;12.80;;;;;;;33.67;46.50;100320.75;220211;1264;138828;-85
2023/06/21 12:33:40;;;;;;;15.90;12.80;;;;;;;33.72;46.39;100325.49;219709;1267;140073;-84
2023/06/21 12:38:48;;;;;;;15.30;13.60;;;;;;;33.95;45.69;100308.02;220209;1267;138915;-82
2023/06/21 12:43:52;;;;;;;15.70;12.30;;;;;;;33.70;45.96;100319.67;219311;1266;140928;-82
2023/06/21 12:48:55;;;;;;;17.30;12.50;;;;;;;33.66;46.31;100307.41;219620;1265;141659;-83
2023/06/21 12:53:57;;;;;;;15.40;13.30;;;;;;;33.88;46.37;100307.80;219826;1264;138559;-83
2023/06/21 12:58:58;;;;;;;16.20;12.90;;;;;;;33.88;45.71;100314.72;219391;1264;141099;-84
2023/06/21 13:04:03;;;;;;;16.70;12.00;;;;;;;33.77;45.55;100319.23;220090;1266;138592;-82
2023/06/21 13:09:04;;;;;;;;;;;;;;;33.60;46.10;100313.00;219442;1265;139379;-81
2023/06/21 13:14:05;;;;;;;17.60;12.80;;;;;;;33.50;46.53;100319.09;220610;1267;124995;-84
2023/06/21 13:19:07;;;;;;;17.30;13.20;;;;;;;33.30;47.79;100326.63;220672;1264;141774;-84
2023/06/21 13:24:07;;;;;;;18.90;14.50;;;;;;;33.06;49.56;100320.66;221742;1266;138340;-84
2023/06/21 13:29:08;;;;;;;17.20;13.30;;;;;;;32.71;50.47;100317.05;220899;1264;140302;-84
2023/06/21 13:34:08;;;;;;;21.30;16.90;;;;;;;32.46;50.85;100330.15;222106;1264;139104;-88
2023/06/21 13:39:08;;;;;;;23.40;16.00;;;;;;;31.66;55.37;100341.35;221488;1264;141090;-83
2023/06/21 13:44:09;;;;;;;18.60;15.20;;;;;;;31.14;60.44;100332.82;221855;1265;139152;-82
2023/06/21 13:49:09;;;;;;;17.30;14.30;;;;;;;30.58;62.58;100321.13;221298;1264;140326;-82
2023/06/21 13:54:10;;;;;;;20.00;13.40;;;;;;;30.23;64.77;100322.08;221826;1263;138991;-82
2023/06/21 13:59:10;;;;;;;18.90;12.30;;;;;;;30.15;64.64;100320.71;223204;1264;140176;-82
2023/06/21 14:04:11;;;;;;;15.60;11.80;;;;;;;30.16;64.13;100309.27;223766;1265;138507;-83
2023/06/21 14:09:12;;;;;;;15.90;11.70;;;;;;;30.19;65.52;100303.70;219566;1266;141368;-83
2023/06/21 14:14:12;;;;;;;19.60;14.20;;;;;;;30.30;66.01;100298.90;220212;1263;138572;-84
2023/06/21 14:19:12;;;;;;;17.60;14.50;;;;;;;30.30;65.66;100293.33;219614;1263;141645;-86
2023/06/21 14:24:13;;;;;;;16.40;13.60;;;;;;;30.29;64.92;100294.27;220059;1266;138463;-85
2023/06/21 14:29:13;;;;;;;15.80;10.80;;;;;;;30.30;61.37;100297.27;219601;1267;141561;-83
2023/06/21 14:34:14;;;;;;;14.50;9.90;;;;;;;30.31;59.26;100294.05;220041;1263;139035;-85
2023/06/21 14:39:14;;;;;;;15.20;10.50;;;;;;;30.34;56.78;100290.13;219621;1264;160875;-91
2023/06/21 14:44:15;;;;;;;13.40;10.30;;;;;;;30.40;54.84;100284.98;220097;1264;139064;-84
2023/06/21 14:49:15;;;;;;;12.50;9.90;;;;;;;30.47;55.72;100278.30;219777;1266;141596;-85
2023/06/21 14:54:16;;;;;;;12.00;9.90;;;;;;;30.52;55.63;100270.77;220382;1264;138186;-87
2023/06/21 14:59:16;;;;;;;11.40;8.10;;;;;;;30.64;54.67;100278.16;219895;1264;140157;-84
2023/06/21 15:04:17;;;;;;;11.30;8.60;;;;;;;30.77;53.36;100294.33;221039;1264;138258;-85
2023/06/21 15:09:18;;;;;;;13.80;9.80;;;;;;;30.94;52.96;100309.64;220446;1267;140565;-85
2023/06/21 15:14:18;;;;;;;11.80;8.10;;;;;;;31.11;50.89;100332.05;221080;1264;138478;-88
2023/06/21 15:19:20;;;;;;;15.30;12.80;;;;;;;31.12;51.23;100352.15;220665;1264;141584;-86
2023/06/21 15:24:20;;;;;;;14.80;12.90;;;;;;;31.11;53.91;100368.22;221216;1266;139413;-86
2023/06/21 15:29:20;;;;;;;16.10;13.60;;;;;;;31.09;54.64;100377.33;220944;1264;140484;-86
2023/06/21 15:34:21;;;;;;;17.90;14.40;;;;;;;30.91;54.82;100385.92;221294;1265;138568;-85
2023/06/21 15:39:21;;;;;;;14.60;13.00;;;;;;;30.81;55.34;100377.30;220627;1263;141120;-85
2023/06/21 15:44:22;;;;;;;16.10;14.00;;;;;;;30.79;55.70;100354.88;222735;1264;138483;-84
2023/06/21 15:49:22;;;;;;;17.00;14.50;;;;;;;30.82;56.03;100356.16;223018;1265;140810;-85
2023/06/21 15:54:23;;;;;;;16.10;14.40;;;;;;;30.65;55.80;100366.23;222023;1265;138639;-87
2023/06/21 15:59:24;;;;;;;16.30;13.70;;;;;;;30.48;56.35;100374.98;219566;1266;141384;-85
2023/06/21 16:04:25;;;;;;;17.30;15.50;;;;;;;30.30;56.40;100388.17;220080;1268;138484;-86
2023/06/21 16:09:26;;;;;;;18.90;14.00;;;;;;;30.04;56.96;100416.10;219393;1267;140497;-89
2023/06/21 16:14:26;;;;;;;16.60;12.20;;;;;;;29.42;58.53;100435.42;220175;1264;138483;-88
2023/06/21 16:19:27;;;;;;;29.60;14.70;;;;;;;28.51;63.88;100479.54;219636;1266;140204;-84
2023/06/21 16:24:27;;;;;;;14.20;10.00;;;;;;;27.58;67.38;100466.08;220282;1263;138756;-86
2023/06/21 16:29:28;;;;;;;15.80;10.10;;;;;;;26.96;69.17;100477.35;219679;1265;141527;-86
2023/06/21 16:34:28;;;;;;;16.30;8.90;;;;;;;26.65;70.72;100479.34;220158;1266;138480;-86
2023/06/21 16:39:30;;;;;;;14.90;7.80;;;;;;;26.52;71.89;100479.79;219473;1266;140283;-87
2023/06/21 16:44:31;;;;;;;11.20;6.80;;;;;;;26.37;72.84;100488.27;220123;1266;138330;-87
2023/06/21 16:49:31;;;;;;;12.80;6.70;;;;;;;26.13;73.39;100478.23;220177;1264;140997;-88
2023/06/21 16:54:31;;;;;;;11.10;6.40;;;;;;;25.88;73.69;100470.09;221020;1263;138763;-87
2023/06/21 16:59:32;;;;;;;12.80;6.40;;;;;;;25.84;73.84;100475.69;220522;1263;141071;-88
2023/06/21 17:04:32;;;;;;;11.00;5.80;;;;;;;25.82;74.36;100478.74;221201;1264;139006;-87
2023/06/21 17:09:34;;;;;;;10.00;5.50;;;;;;;25.78;74.82;100483.14;220741;1264;141807;-87
2023/06/21 17:14:35;;;;;;;9.80;5.80;;;;;;;25.70;75.41;100480.47;221104;1267;139649;-85
2023/06/21 17:19:35;;;;;;;8.90;5.30;;;;;;;25.62;76.15;100484.52;220607;1266;141639;-85
2023/06/21 17:24:35;;;;;;;8.60;5.70;;;;;;;25.56;75.92;100494.59;221344;1266;138736;-84
2023/06/21 17:29:36;;;;;;;9.90;6.20;;;;;;;25.50;75.82;100505.83;221253;1264;140880;-84
2023/06/21 17:34:37;;;;;;;11.90;5.90;;;;;;;25.43;76.82;100506.00;223376;1267;139011;-85
2023/06/21 17:39:38;;;;;;;10.00;6.00;;;;;;;25.32;77.88;100504.37;223102;1267;141586;-84
2023/06/21 17:44:38;;;;;;;9.60;5.80;;;;;;;25.19;79.12;100494.96;222900;1266;139400;-83
2023/06/21 17:49:41;;;;;;;11.40;6.60;;;;;;;25.07;80.00;100494.43;222911;1268;142296;-84
2023/06/21 17:54:41;;;;;;;10.60;6.80;;;;;;;24.96;81.08;100492.28;223743;1264;96516;-83
2023/06/21 17:59:42;;;;;;;11.50;7.40;;;;;;;24.85;82.33;100486.55;222887;1263;141094;-84
2023/06/21 18:04:42;;;;;;;13.40;7.50;;;;;;;24.75;81.98;100483.38;223444;1267;140632;-84
2023/06/21 18:09:43;;;;;;;13.10;7.40;;;;;;;24.66;82.91;100488.52;222887;1264;141540;-84
2023/06/21 18:14:43;;;;;;;15.20;8.40;;;;;;;24.59;83.76;100487.59;223625;1267;140322;-84
2023/06/21 18:19:44;;;;;;;12.40;9.40;;;;;;;24.51;84.28;100492.98;222940;1266;141117;-85
2023/06/21 18:24:44;;;;;;;15.20;9.50;;;;;;;24.42;85.53;100493.30;223779;1267;96366;-84
2023/06/21 18:29:45;;;;;;;14.50;10.60;;;;;;;24.34;86.72;100494.55;223055;1263;141256;-83
2023/06/21 18:34:45;;;;;;;17.10;11.40;;;;;;;24.26;87.68;100498.45;223337;1264;326577;-85
2023/06/21 18:39:45;;;;;;;16.10;11.90;;;;;;;24.19;88.44;100489.83;223033;1264;140935;-84
2023/06/21 18:44:46;;;;;;;17.60;11.70;;;;;;;24.10;89.21;100484.14;223623;1264;139804;-83
2023/06/21 18:49:47;;;;;;;17.60;12.40;;;;;;;23.99;90.17;100498.24;223192;1263;140927;-83
2023/06/21 18:54:47;;;;;;;15.60;12.10;;;;;;;23.89;90.38;100496.50;223565;1266;104601;-83
2023/06/21 18:59:48;;;;;;;15.40;11.50;;;;;;;23.81;91.41;100495.21;222959;1265;142813;-83
2023/06/21 19:04:50;;;;;;;17.30;12.70;;;;;;;23.69;91.52;100502.46;223469;1264;139384;-83
2023/06/21 19:09:50;;;;;;;18.00;14.10;;;;;;;23.61;92.17;100504.59;223141;1264;142151;-83
2023/06/21 19:14:52;;;;;;;17.70;14.10;;;;;;;23.51;92.30;100516.28;223699;1264;139339;-83
2023/06/21 19:19:52;;;;;;;16.70;12.40;;;;;;;23.41;93.04;100527.64;223102;1264;141453;-83
2023/06/21 19:24:53;;;;;;;18.40;13.50;;;;;;;23.32;94.04;100541.30;223804;1266;97781;-83
2023/06/21 19:29:53;;;;;;;15.30;12.70;;;;;;;23.23;95.03;100555.08;222447;1268;141355;-84
2023/06/21 19:34:54;;;;;;;20.70;14.90;;;;;;;23.14;94.86;100558.84;223017;1264;139980;-84
2023/06/21 19:39:54;;;;;;;19.80;14.70;;;;;;;23.05;96.36;100575.30;222992;1266;142078;-84
2023/06/21 19:44:54;;;;;;;20.50;15.30;;;;;;;22.94;96.99;100584.84;223595;1264;139181;-85
2023/06/21 19:49:55;;;;;;;20.00;16.30;;;;;;;22.83;97.23;100590.23;223099;1267;142076;-87
2023/06/21 19:54:55;;;;;;;18.80;15.40;;;;;;;22.75;98.00;100601.51;223620;1264;98158;-85
2023/06/21 19:59:56;;;;;;;21.30;15.70;;;;;;;22.67;98.75;100619.44;223169;1264;141330;-84
2023/06/21 20:04:56;;;;;;;19.10;14.40;;;;;;;22.59;99.12;100624.44;223600;1264;139188;-84
2023/06/21 20:10:00;;;;;;;21.50;17.20;;;;;;;22.51;99.30;100622.27;223055;1267;155674;-85
2023/06/21 20:15:01;;;;;;;21.40;16.90;;;;;;;22.45;99.90;100616.21;223472;1267;139235;-86
2023/06/21 20:20:01;;;;;;;21.90;16.90;;;;;;;22.36;99.89;100621.70;223204;1267;142112;-86
2023/06/21 20:25:02;;;;;;;22.60;17.40;;;;;;;22.30;99.84;100624.40;223815;1268;96895;-86
2023/06/21 20:30:03;;;;;;;20.40;16.60;;;;;;;22.22;100.00;100630.42;223126;1263;142809;-86
2023/06/21 20:35:05;;;;;;;20.80;15.00;;;;;;;22.15;100.00;100629.45;223768;1264;139159;-86
2023/06/21 20:40:07;;;;;;;19.70;16.50;;;;;;;22.12;99.90;100636.35;223200;1264;141274;-84
2023/06/21 20:45:20;;;;;;;18.20;15.30;;;;;;;22.09;99.83;100643.10;223727;1267;139300;-84
2023/06/21 20:50:21;;;;;;;20.60;17.20;;;;;;;22.05;100.00;100646.36;223178;1267;141280;-86
2023/06/21 20:55:24;;;;;;;20.80;17.70;;;;;;;22.01;100.00;100650.51;223798;1267;96629;-86
2023/06/21 21:00:25;;;;;;;23.20;19.20;;;;;;;21.97;100.00;100658.96;223185;1268;141250;-86
2023/06/21 21:05:26;;;;;;;24.10;19.00;;;;;;;21.92;100.00;100666.48;223712;1267;139488;-86
2023/06/21 21:10:27;;;;;;;20.30;15.70;;;;;;;21.84;100.00;100665.46;223183;1264;142480;-85
2023/06/21 21:15:27;;;;;;;21.70;18.80;;;;;;;21.78;100.00;100662.35;223530;1263;139454;-87
2023/06/21 21:20:28;;;;;;;21.30;17.90;;;;;;;21.74;100.00;100658.97;222048;1267;141189;-85
2023/06/21 21:25:28;;;;;;;21.30;17.50;;;;;;;21.67;100.00;100659.73;223479;1264;96628;-85
2023/06/21 21:30:29;;;;;;;19.40;15.80;;;;;;;21.62;100.00;100670.92;222938;1264;141622;-84
2023/06/21 21:35:32;;;;;;;23.80;19.30;;;;;;;21.57;100.00;100664.36;223524;1264;140037;-84
2023/06/21 21:40:32;;;;;;;20.30;16.80;;;;;;;21.49;100.00;100664.17;222967;1267;141931;-83
2023/06/21 21:45:33;;;;;;;19.50;16.60;;;;;;;21.46;100.00;100665.00;223767;1264;139376;-84
2023/06/21 21:50:36;;;;;;;22.30;17.90;;;;;;;21.43;100.00;100675.02;223192;1264;141628;-84
2023/06/21 21:55:36;;;;;;;21.10;17.30;;;;;;;21.39;100.00;100693.76;223844;1264;96409;-84
2023/06/21 22:00:36;;;;;;;24.70;18.10;;;;;;;21.37;100.00;100703.34;223219;1264;142052;-84
2023/06/21 22:05:37;;;;;;;20.10;16.90;;;;;;;21.36;100.00;100714.10;223728;1267;139327;-86
2023/06/21 22:10:37;;;;;;;28.10;22.20;;;;;;;21.31;100.00;100709.10;223233;1264;142428;-86
2023/06/21 22:15:50;;;;;;;26.10;21.80;;;;;;;21.30;100.00;100706.67;223712;1264;140095;-86
2023/06/21 22:21:00;;;;;;;23.70;21.00;;;;;;;21.30;100.00;100711.29;223179;1267;142194;-86